createdAt,value
2022-10-21T00:02:13.201Z,17.35
2022-10-21T00:04:40.925Z,17.25
2022-10-21T00:07:08.612Z,17.08
2022-10-21T00:09:36.328Z,17.52
2022-10-21T00:12:04.315Z,17.60
2022-10-21T00:14:32.268Z,18.75
2022-10-21T00:17:01.483Z,19.10
2022-10-21T00:19:29.232Z,20.33
2022-10-21T00:21:56.915Z,21.27
2022-10-21T00:24:24.611Z,20.40
2022-10-21T00:26:52.267Z,19.67
2022-10-21T00:31:54.935Z,18.95
2022-10-21T00:34:28.493Z,16.88
2022-10-21T00:36:58.663Z,17.35
2022-10-21T00:39:26.360Z,18.23
2022-10-21T00:41:54.036Z,20.38
2022-10-21T00:44:22.036Z,20.45
2022-10-21T00:46:53.845Z,18.50
2022-10-21T00:49:32.633Z,22.95
2022-10-21T00:52:02.986Z,22.15
2022-10-21T00:54:32.142Z,21.67
2022-10-21T00:57:00.453Z,18.15
2022-10-21T00:59:32.103Z,17.25
2022-10-21T01:01:59.807Z,21.00
2022-10-21T01:04:28.965Z,18.80
2022-10-21T01:06:58.019Z,18.45
2022-10-21T01:09:26.342Z,18.70
2022-10-21T01:11:54.787Z,20.20
2022-10-21T01:14:38.653Z,18.92
2022-10-21T01:17:40.294Z,20.13
2022-10-21T01:20:45.199Z,20.30
2022-10-21T01:23:55.727Z,19.27
2022-10-21T01:27:03.525Z,18.73
2022-10-21T01:30:20.855Z,18.50
2022-10-21T01:33:02.612Z,17.83
2022-10-21T01:35:38.298Z,16.67
2022-10-21T01:38:11.071Z,17.27
2022-10-21T01:40:46.457Z,16.75
2022-10-21T01:43:20.671Z,18.05
2022-10-21T01:45:51.535Z,19.08
2022-10-21T01:48:25.511Z,21.00
2022-10-21T01:50:57.876Z,22.63
2022-10-21T01:53:30.438Z,22.45
2022-10-21T01:55:59.864Z,20.00
2022-10-21T01:58:31.134Z,20.98
2022-10-21T02:01:01.983Z,20.63
2022-10-21T02:03:34.321Z,19.50
2022-10-21T02:06:02.016Z,18.58
2022-10-21T02:08:29.973Z,18.67
2022-10-21T02:11:04.383Z,20.58
2022-10-21T02:16:08.024Z,18.80
2022-10-21T02:18:37.111Z,20.73
2022-10-21T02:21:09.557Z,20.77
2022-10-21T02:23:43.276Z,24.23
2022-10-21T02:26:11.738Z,17.15
2022-10-21T02:31:20.215Z,18.75
2022-10-21T02:34:00.354Z,17.98
2022-10-21T02:36:37.159Z,19.92
2022-10-21T02:39:10.287Z,18.83
2022-10-21T02:41:41.552Z,18.15
2022-10-21T02:44:09.801Z,17.65
2022-10-21T02:46:40.584Z,18.55
2022-10-21T02:49:09.981Z,19.88
2022-10-21T02:51:37.739Z,18.25
2022-10-21T02:54:05.404Z,18.55
2022-10-21T02:56:35.344Z,20.65
2022-10-21T02:59:03.191Z,18.67
2022-10-21T03:01:30.930Z,18.05
2022-10-21T03:03:58.649Z,18.27
2022-10-21T03:06:28.033Z,16.75
2022-10-21T03:08:55.760Z,17.80
2022-10-21T03:11:23.481Z,17.50
2022-10-21T03:13:51.100Z,19.50
2022-10-21T03:18:51.585Z,19.50
2022-10-21T03:21:19.478Z,20.42
2022-10-21T03:23:48.769Z,18.73
2022-10-21T03:26:16.429Z,19.73
2022-10-21T03:28:44.105Z,19.27
2022-10-21T03:31:11.928Z,17.17
2022-10-21T03:33:39.699Z,18.42
2022-10-21T03:36:08.113Z,18.25
2022-10-21T03:38:35.876Z,18.30
2022-10-21T03:41:05.085Z,18.50
2022-10-21T03:43:32.751Z,18.27
2022-10-21T03:46:00.507Z,17.67
2022-10-21T03:48:28.500Z,16.42
2022-10-21T03:50:56.910Z,16.95
2022-10-21T03:53:42.153Z,16.25
2022-10-21T03:56:12.747Z,16.95
2022-10-21T03:58:40.804Z,17.70
2022-10-21T04:01:11.959Z,17.05
2022-10-21T04:03:39.960Z,19.25
2022-10-21T04:06:07.768Z,16.35
2022-10-21T04:08:35.498Z,17.83
2022-10-21T04:11:06.749Z,17.70
2022-10-21T04:13:35.890Z,18.17
2022-10-21T04:16:05.643Z,17.08
2022-10-21T04:18:33.312Z,17.83
2022-10-21T04:21:01.126Z,16.40
2022-10-21T04:23:28.773Z,15.60
2022-10-21T04:25:56.588Z,13.50
2022-10-21T04:28:24.257Z,13.95
2022-10-21T04:30:53.749Z,16.63
2022-10-21T04:33:21.445Z,17.88
2022-10-21T04:35:49.284Z,18.33
2022-10-21T04:38:17.083Z,18.17
2022-10-21T04:40:44.752Z,20.30
2022-10-21T04:43:12.434Z,19.98
2022-10-21T04:45:40.559Z,19.73
2022-10-21T04:48:09.635Z,20.15
2022-10-21T04:50:37.387Z,19.92
2022-10-21T04:53:05.299Z,21.52
2022-10-21T04:55:33.035Z,19.27
2022-10-21T04:58:00.727Z,19.65
2022-10-21T05:00:28.412Z,19.52
2022-10-21T05:02:56.127Z,21.77
2022-10-21T05:05:25.182Z,23.90
2022-10-21T05:07:52.870Z,22.33
2022-10-21T05:10:22.297Z,25.10
2022-10-21T05:12:49.988Z,22.92
2022-10-21T05:15:17.911Z,20.92
2022-10-21T05:17:45.670Z,22.35
2022-10-21T05:20:13.587Z,22.40
2022-10-21T05:22:42.690Z,21.90
2022-10-21T05:25:10.916Z,21.88
2022-10-21T05:27:38.855Z,20.45
2022-10-21T05:30:07.477Z,20.20
2022-10-21T05:32:35.614Z,21.75
2022-10-21T05:35:03.648Z,21.85
2022-10-21T05:37:31.377Z,22.95
2022-10-21T05:40:00.377Z,20.35
2022-10-21T05:42:28.146Z,21.48
2022-10-21T05:44:56.006Z,22.00
2022-10-21T05:47:24.318Z,20.73
2022-10-21T05:49:52.894Z,19.08
2022-10-21T05:52:20.586Z,20.83
2022-10-21T05:54:48.601Z,19.95
2022-10-21T05:57:17.632Z,20.85
2022-10-21T05:59:45.303Z,18.00
2022-10-21T06:02:13.125Z,17.73
2022-10-21T06:04:40.838Z,19.05
2022-10-21T06:07:08.646Z,19.42
2022-10-21T06:09:37.680Z,19.73
2022-10-21T06:12:06.625Z,20.42
2022-10-21T06:14:36.555Z,21.92
2022-10-21T06:17:04.594Z,22.42
2022-10-21T06:19:32.563Z,20.17
2022-10-21T06:22:00.295Z,19.20
2022-10-21T06:24:28.040Z,17.42
2022-10-21T06:26:55.783Z,16.90
2022-10-21T06:29:23.611Z,16.58
2022-10-21T06:31:54.303Z,17.15
2022-10-21T06:34:22.461Z,17.65
2022-10-21T06:36:50.166Z,16.10
2022-10-21T06:39:17.917Z,16.05
2022-10-21T06:41:45.737Z,19.15
2022-10-21T06:44:24.095Z,17.75
2022-10-21T06:46:54.116Z,18.30
2022-10-21T06:49:21.954Z,18.30
2022-10-21T06:51:49.659Z,20.63
2022-10-21T06:54:17.411Z,17.38
2022-10-21T06:56:45.102Z,18.80
2022-10-21T06:59:12.877Z,17.85
2022-10-21T07:01:59.254Z,17.90
2022-10-21T07:04:30.122Z,19.92
2022-10-21T07:06:58.199Z,18.75
2022-10-21T07:09:26.077Z,16.50
2022-10-21T07:11:53.838Z,14.43
2022-10-21T07:14:21.519Z,15.13
2022-10-21T07:16:49.282Z,15.43
2022-10-21T07:19:16.978Z,14.02
2022-10-21T07:21:46.210Z,14.75
2022-10-21T07:24:16.297Z,16.25
2022-10-21T07:26:45.426Z,16.17
2022-10-21T07:29:13.207Z,17.13
2022-10-21T07:31:40.927Z,15.52
2022-10-21T07:34:10.025Z,15.88
2022-10-21T07:36:39.815Z,15.50
2022-10-21T07:39:11.990Z,16.92
2022-10-21T07:41:42.052Z,15.85
2022-10-21T07:44:10.456Z,14.90
2022-10-21T07:46:38.889Z,15.85
2022-10-21T07:49:06.588Z,15.55
2022-10-21T07:51:34.672Z,14.82
2022-10-21T07:54:02.785Z,14.60
2022-10-21T07:56:34.336Z,15.52
2022-10-21T07:59:07.702Z,17.02
2022-10-21T08:01:38.246Z,17.55
2022-10-21T08:04:06.033Z,17.15
2022-10-21T08:06:34.053Z,16.92
2022-10-21T08:09:03.003Z,16.08
2022-10-21T08:11:34.343Z,15.15
2022-10-21T08:14:03.129Z,15.63
2022-10-21T08:16:30.820Z,16.10
2022-10-21T08:19:00.650Z,17.70
2022-10-21T08:21:28.616Z,16.02
2022-10-21T08:23:59.231Z,17.52
2022-10-21T08:26:26.971Z,17.40
2022-10-21T08:28:56.006Z,16.38
2022-10-21T08:31:24.226Z,15.73
2022-10-21T08:33:52.094Z,15.40
2022-10-21T08:36:21.754Z,14.25
2022-10-21T08:38:50.521Z,14.63
2022-10-21T08:41:49.604Z,14.65
2022-10-21T08:44:29.845Z,14.48
2022-10-21T08:47:04.863Z,13.57
2022-10-21T08:49:43.761Z,13.13
2022-10-21T08:52:16.242Z,13.63
2022-10-21T08:54:48.851Z,11.35
2022-10-21T08:57:16.819Z,11.32
2022-10-21T08:59:50.079Z,13.68
2022-10-21T09:02:29.372Z,12.30
2022-10-21T09:05:21.527Z,14.50
2022-10-21T09:08:01.863Z,11.75
2022-10-21T09:10:40.359Z,12.02
2022-10-21T09:13:15.900Z,12.25
2022-10-21T09:15:53.494Z,11.77
2022-10-21T09:18:30.547Z,13.25
2022-10-21T09:21:06.765Z,14.35
2022-10-21T09:23:47.290Z,15.68
2022-10-21T09:26:30.214Z,15.70
2022-10-21T09:28:58.445Z,11.90
2022-10-21T09:31:30.197Z,10.90
2022-10-21T09:34:03.530Z,11.43
2022-10-21T09:36:36.924Z,8.43
2022-10-21T09:39:08.765Z,8.53
2022-10-21T09:41:41.385Z,9.68
2022-10-21T09:44:16.980Z,8.85
2022-10-21T09:46:47.848Z,9.15
2022-10-21T09:49:53.952Z,9.23
2022-10-21T09:52:12.521Z,7.03
2022-10-21T09:54:42.826Z,4.28
2022-10-21T09:57:14.915Z,2.83
2022-10-21T10:00:02.262Z,6.82
2022-10-21T10:02:43.105Z,5.45
2022-10-21T10:05:35.856Z,7.22
2022-10-21T10:08:21.658Z,5.97
2022-10-21T10:10:49.552Z,7.43
2022-10-21T10:13:20.034Z,6.82
2022-10-21T10:15:47.950Z,6.45
2022-10-21T10:18:23.949Z,7.10
2022-10-21T10:21:06.378Z,6.38
2022-10-21T10:23:44.082Z,6.60
2022-10-21T10:26:12.630Z,7.13
2022-10-21T10:31:09.234Z,6.20
2022-10-21T10:33:38.342Z,6.75
2022-10-21T10:36:09.573Z,6.57
2022-10-21T10:38:41.248Z,6.35
2022-10-21T10:41:11.320Z,6.43
2022-10-21T10:43:45.908Z,5.88
2022-10-21T10:46:25.258Z,4.95
2022-10-21T10:48:56.695Z,5.32
2022-10-21T10:51:27.535Z,6.78
2022-10-21T10:54:04.569Z,5.22
2022-10-21T10:56:37.064Z,6.05
2022-10-21T10:59:15.588Z,6.57
2022-10-21T11:01:51.008Z,7.15
2022-10-21T11:04:26.614Z,6.25
2022-10-21T11:07:01.818Z,6.28
2022-10-21T11:09:34.371Z,7.13
2022-10-21T11:12:07.142Z,7.05
2022-10-21T11:14:35.489Z,6.30
2022-10-21T11:17:11.685Z,8.38
2022-10-21T11:19:53.940Z,8.23
2022-10-21T11:22:35.562Z,8.05
2022-10-21T11:25:15.594Z,8.00
2022-10-21T11:28:07.419Z,6.43
2022-10-21T11:30:48.749Z,6.05
2022-10-21T11:33:24.716Z,4.57
2022-10-21T11:36:03.923Z,5.53
2022-10-21T11:38:47.633Z,5.65
2022-10-21T11:41:28.180Z,6.43
2022-10-21T11:44:07.720Z,4.75
2022-10-21T11:46:46.075Z,4.78
2022-10-21T11:49:33.012Z,3.75
2022-10-21T11:52:14.461Z,4.18
2022-10-21T11:55:11.181Z,4.22
2022-10-21T11:57:48.753Z,4.15
2022-10-21T12:00:20.103Z,3.92
2022-10-21T12:03:16.531Z,3.67
2022-10-21T12:05:52.051Z,3.17
2022-10-21T12:08:27.064Z,2.67
2022-10-21T12:11:00.801Z,2.67
2022-10-21T12:13:32.620Z,2.60
2022-10-21T12:16:03.363Z,2.63
2022-10-21T12:18:31.583Z,2.70
2022-10-21T12:21:00.723Z,2.35
2022-10-21T12:23:32.470Z,2.70
2022-10-21T12:26:17.623Z,1.92
2022-10-21T12:28:52.338Z,1.70
2022-10-21T12:31:31.959Z,1.80
2022-10-21T12:33:59.960Z,1.98
2022-10-21T12:36:43.420Z,2.30
2022-10-21T12:39:18.309Z,2.22
2022-10-21T12:41:47.837Z,2.70
2022-10-21T12:44:23.361Z,2.67
2022-10-21T12:46:53.404Z,2.58
2022-10-21T12:49:25.001Z,2.58
2022-10-21T12:51:57.817Z,2.47
2022-10-21T12:54:30.741Z,2.63
2022-10-21T12:57:05.458Z,2.15
2022-10-21T12:59:36.753Z,3.45
2022-10-21T13:02:20.912Z,3.25
2022-10-21T13:04:51.409Z,3.40
2022-10-21T13:07:48.139Z,2.30
2022-10-21T13:10:35.267Z,1.88
2022-10-21T13:13:30.309Z,2.15
2022-10-21T13:15:58.416Z,2.50
2022-10-21T13:18:54.791Z,2.65
2022-10-21T13:21:25.673Z,2.17
2022-10-21T13:23:54.727Z,3.05
2022-10-21T13:26:30.038Z,3.72
2022-10-21T13:29:02.232Z,3.20
2022-10-21T13:31:30.795Z,2.97
2022-10-21T13:33:59.004Z,2.05
2022-10-21T13:39:09.571Z,1.33
2022-10-21T13:41:38.894Z,1.33
2022-10-21T13:44:08.350Z,1.63
2022-10-21T13:46:40.851Z,1.65
2022-10-21T13:49:27.856Z,1.30
2022-10-21T13:51:55.578Z,1.30
2022-10-21T13:54:23.305Z,1.20
2022-10-21T13:56:52.313Z,1.50
2022-10-21T13:59:24.524Z,1.20
2022-10-21T14:01:54.013Z,1.65
2022-10-21T14:04:23.907Z,0.75
2022-10-21T14:06:54.020Z,1.00
2022-10-21T14:09:24.958Z,0.80
2022-10-21T14:11:57.962Z,1.27
2022-10-21T14:14:27.947Z,1.58
2022-10-21T14:16:57.554Z,1.15
2022-10-21T14:19:29.037Z,0.85
2022-10-21T14:21:59.420Z,1.27
2022-10-21T14:24:29.988Z,1.00
2022-10-21T14:26:59.305Z,0.80
2022-10-21T14:29:29.039Z,1.25
2022-10-21T14:31:58.011Z,0.85
2022-10-21T14:34:27.434Z,0.90
2022-10-21T14:37:09.234Z,0.85
2022-10-21T14:42:14.033Z,0.70
2022-10-21T14:44:43.683Z,1.08
2022-10-21T14:47:18.514Z,0.88
2022-10-21T14:49:49.388Z,0.90
2022-10-21T14:52:21.640Z,1.30
2022-10-21T14:54:53.875Z,1.00
2022-10-21T14:57:39.057Z,0.95
2022-10-21T15:00:10.181Z,1.27
2022-10-21T15:02:39.287Z,1.00
2022-10-21T15:05:29.822Z,1.00
2022-10-21T15:08:16.469Z,0.75
2022-10-21T15:10:44.244Z,1.00
2022-10-21T15:13:20.433Z,1.08
2022-10-21T15:15:54.045Z,1.10
2022-10-21T15:18:24.584Z,1.20
2022-10-21T15:20:58.082Z,1.08
2022-10-21T15:23:30.254Z,1.30
2022-10-21T15:26:01.279Z,1.10
2022-10-21T15:28:33.036Z,1.10
2022-10-21T15:31:02.409Z,0.85
2022-10-21T15:33:32.637Z,0.57
2022-10-21T15:36:01.443Z,1.00
2022-10-21T15:38:29.240Z,1.30
2022-10-21T15:40:56.980Z,0.80
2022-10-21T15:43:24.695Z,1.00
2022-10-21T15:45:54.532Z,1.13
2022-10-21T15:48:23.079Z,0.75
2022-10-21T15:50:50.844Z,1.00
2022-10-21T15:53:18.617Z,0.73
2022-10-21T15:55:46.324Z,0.90
2022-10-21T15:58:14.093Z,1.10
2022-10-21T16:00:41.891Z,0.70
2022-10-21T16:03:10.969Z,0.77
2022-10-21T16:05:39.521Z,0.75
2022-10-21T16:08:07.221Z,0.50
2022-10-21T16:10:37.368Z,0.77
2022-10-21T16:13:05.202Z,0.60
2022-10-21T16:15:32.890Z,0.52
2022-10-21T16:18:01.134Z,0.70
2022-10-21T16:20:32.142Z,0.70
2022-10-21T16:23:02.966Z,1.10
2022-10-21T16:25:31.145Z,0.70
2022-10-21T16:27:58.902Z,0.98
2022-10-21T16:30:29.717Z,1.10
2022-10-21T16:32:58.122Z,0.95
2022-10-21T16:35:26.549Z,1.50
2022-10-21T16:37:56.569Z,1.00
2022-10-21T16:40:27.052Z,1.23
2022-10-21T16:42:54.903Z,0.95
2022-10-21T16:45:24.612Z,0.90
2022-10-21T16:47:56.603Z,1.15
2022-10-21T16:50:29.990Z,0.95
2022-10-21T16:53:01.902Z,1.13
2022-10-21T16:55:29.873Z,1.30
2022-10-21T16:57:57.742Z,1.10
2022-10-21T17:00:25.507Z,0.88
2022-10-21T17:02:53.798Z,0.90
2022-10-21T17:05:22.394Z,1.48
2022-10-21T17:07:50.282Z,1.10
2022-10-21T17:10:19.616Z,1.05
2022-10-21T17:12:47.482Z,1.15
2022-10-21T17:15:16.737Z,1.05
2022-10-21T17:17:44.439Z,1.77
2022-10-21T17:20:12.463Z,2.50
2022-10-21T17:22:40.148Z,4.30
2022-10-21T17:25:08.575Z,5.55
2022-10-21T17:27:37.954Z,4.80
2022-10-21T17:30:07.177Z,4.40
2022-10-21T17:32:36.509Z,2.90
2022-10-21T17:35:04.440Z,2.13
2022-10-21T17:37:32.301Z,3.95
2022-10-21T17:39:59.988Z,1.67
2022-10-21T17:42:27.789Z,1.77
2022-10-21T17:44:58.210Z,1.90
2022-10-21T17:47:25.968Z,1.42
2022-10-21T17:49:53.722Z,1.23
2022-10-21T17:52:21.461Z,1.25
2022-10-21T17:54:49.233Z,1.10
2022-10-21T17:57:17.000Z,1.13
2022-10-21T17:59:45.169Z,1.10
2022-10-21T18:02:17.259Z,1.20
2022-10-21T18:04:45.083Z,1.30
2022-10-21T18:07:16.944Z,1.27
2022-10-21T18:09:45.593Z,1.15
2022-10-21T18:12:14.097Z,1.13
2022-10-21T18:14:42.185Z,1.20
2022-10-21T18:17:09.984Z,1.30
2022-10-21T18:19:39.544Z,1.25
2022-10-21T18:22:07.249Z,1.30
2022-10-21T18:24:34.979Z,1.30
2022-10-21T18:27:02.837Z,1.30
2022-10-21T18:29:30.523Z,1.40
2022-10-21T18:31:58.309Z,1.63
2022-10-21T18:34:26.575Z,1.38
2022-10-21T18:36:56.609Z,1.13
2022-10-21T18:39:24.379Z,1.50
2022-10-21T18:41:53.539Z,1.02
2022-10-21T18:44:22.979Z,1.02
2022-10-21T18:46:52.497Z,0.98
2022-10-21T18:49:23.009Z,1.30
2022-10-21T18:51:50.862Z,1.08
2022-10-21T18:54:19.953Z,1.10
2022-10-21T18:56:47.765Z,0.98
2022-10-21T18:59:15.594Z,1.33
2022-10-21T19:01:43.377Z,1.40
2022-10-21T19:06:40.607Z,1.50
2022-10-21T19:09:12.813Z,2.38
2022-10-21T19:11:42.491Z,1.38
2022-10-21T19:14:13.885Z,1.42
2022-10-21T19:16:42.615Z,2.30
2022-10-21T19:19:10.385Z,1.83
2022-10-21T19:21:38.457Z,1.92
2022-10-21T19:24:06.580Z,1.63
2022-10-21T19:26:36.900Z,5.72
2022-10-21T19:29:09.592Z,5.55
2022-10-21T19:31:38.477Z,5.00
2022-10-21T19:34:06.976Z,5.47
2022-10-21T19:36:34.790Z,4.13
2022-10-21T19:39:02.688Z,3.50
2022-10-21T19:41:30.647Z,3.90
2022-10-21T19:43:59.398Z,2.30
2022-10-21T19:46:30.669Z,2.17
2022-10-21T19:48:58.975Z,2.10
2022-10-21T19:51:27.213Z,1.98
2022-10-21T19:53:58.297Z,2.28
2022-10-21T19:56:29.660Z,2.00
2022-10-21T19:59:02.340Z,1.60
2022-10-21T20:01:32.591Z,1.20
2022-10-21T20:04:01.361Z,1.85
2022-10-21T20:06:30.934Z,1.45
2022-10-21T20:09:01.236Z,1.50
2022-10-21T20:11:29.959Z,1.40
2022-10-21T20:13:57.866Z,1.75
2022-10-21T20:16:27.756Z,1.75
2022-10-21T20:18:58.601Z,1.65
2022-10-21T20:21:26.870Z,1.70
2022-10-21T20:23:55.093Z,1.02
2022-10-21T20:26:24.072Z,1.65
2022-10-21T20:28:52.210Z,1.23
2022-10-21T20:31:20.237Z,1.52
2022-10-21T20:33:49.930Z,1.20
2022-10-21T20:36:21.699Z,1.50
2022-10-21T20:38:51.443Z,1.40
2022-10-21T20:41:23.995Z,1.48
2022-10-21T20:43:52.234Z,1.30
2022-10-21T20:46:22.510Z,1.30
2022-10-21T20:48:52.125Z,1.30
2022-10-21T20:51:23.858Z,1.40
2022-10-21T20:53:53.474Z,1.80
2022-10-21T20:56:21.935Z,2.00
2022-10-21T20:58:50.222Z,1.98
2022-10-21T21:01:22.099Z,2.05
2022-10-21T21:03:51.053Z,1.85
2022-10-21T21:06:19.170Z,1.80
2022-10-21T21:09:08.197Z,2.15
2022-10-21T21:11:36.628Z,2.00
2022-10-21T21:14:05.357Z,2.00
2022-10-21T21:16:33.164Z,1.77
2022-10-21T21:19:03.225Z,2.08
2022-10-21T21:21:32.462Z,2.20
2022-10-21T21:24:02.137Z,2.15
2022-10-21T21:26:31.937Z,1.80
2022-10-21T21:29:00.475Z,2.25
2022-10-21T21:31:30.316Z,2.55
2022-10-21T21:33:58.079Z,2.63
2022-10-21T21:36:26.054Z,3.15
2022-10-21T21:38:54.364Z,2.13
2022-10-21T21:41:25.150Z,1.75
2022-10-21T21:43:54.679Z,1.55
2022-10-21T21:46:24.012Z,2.05
2022-10-21T21:48:55.346Z,1.70
2022-10-21T21:51:24.306Z,1.70
2022-10-21T21:53:52.372Z,1.92
2022-10-21T21:56:21.431Z,1.90
2022-10-21T21:58:51.638Z,2.20
2022-10-21T22:01:21.441Z,1.98
2022-10-21T22:03:51.724Z,2.65
2022-10-21T22:06:20.539Z,1.77
2022-10-21T22:08:48.454Z,1.67
2022-10-21T22:11:18.403Z,1.20
2022-10-21T22:13:46.452Z,1.63
2022-10-21T22:16:16.428Z,1.35
2022-10-21T22:18:44.709Z,1.17
2022-10-21T22:21:15.047Z,1.50
2022-10-21T22:23:43.616Z,1.10
2022-10-21T22:26:12.795Z,1.02
2022-10-21T22:28:41.303Z,1.20
2022-10-21T22:31:11.480Z,0.80
2022-10-21T22:33:41.372Z,0.65
2022-10-21T22:36:09.602Z,0.70
2022-10-21T22:38:37.278Z,0.32
2022-10-21T22:41:12.260Z,0.57
2022-10-21T22:43:40.867Z,0.47
2022-10-21T22:46:22.198Z,0.80
2022-10-21T22:48:57.985Z,0.70
2022-10-21T22:51:25.763Z,0.75
2022-10-21T22:53:56.278Z,0.80
2022-10-21T22:56:25.536Z,1.10
2022-10-21T22:58:53.254Z,0.80
2022-10-21T23:01:21.044Z,0.85
2022-10-21T23:03:48.895Z,1.10
2022-10-21T23:06:17.895Z,0.90
2022-10-21T23:08:45.637Z,0.60
2022-10-21T23:11:13.348Z,0.70
2022-10-21T23:13:51.177Z,0.75
2022-10-21T23:16:28.840Z,0.70
2022-10-21T23:18:56.616Z,1.10
2022-10-21T23:21:25.745Z,1.48
2022-10-21T23:23:53.756Z,1.05
2022-10-21T23:26:21.503Z,1.20
2022-10-21T23:28:49.187Z,2.08
2022-10-21T23:31:16.889Z,0.85
2022-10-21T23:33:44.621Z,0.93
2022-10-21T23:36:12.290Z,0.60
2022-10-21T23:38:41.467Z,0.70
2022-10-21T23:41:09.152Z,0.52
2022-10-21T23:43:36.858Z,0.80
2022-10-21T23:46:06.624Z,0.40
2022-10-21T23:48:34.340Z,0.73
2022-10-21T23:51:02.057Z,0.95
2022-10-21T23:53:29.766Z,0.60
2022-10-21T23:55:58.818Z,0.50
2022-10-21T23:58:26.534Z,0.50
